Terminal Aerodrome Forecast
Issued by NWS

Home | Current Version | Previous Version | Text Only | Print | Product List | Glossary On
Versions: 1 2 3 4 5 6 7 8 9 10 11 12 13 14 15
028
FTUS42 TJSJ 251853 AAB
TAFJSJ
TAF AMD
TJSJ 251853Z 2519/2618 13007G15KT P6SM FEW035
     FM252200 10008KT P6SM SCT035
     FM260600 VRB03KT P6SM VCSH SCT030
     FM261300 09013KT P6SM VCSH SCT025 SCT050=

USA.gov is the U.S. government's official web portal to all federal, state and local government web resources and services.